Time;durP1;ratioP1;P1;durP2;ratioP2;P2;SDS_P1;SDS_P2;PMS_P1;PMS_P2;Temp;Humidity;BMP_temperature;BMP_pressure;BME280_temperature;BME280_humidity;BME280_pressure;Samples;Min_cycle;Max_cycle;Signal;HPM_P1;HPM_P2
2023/01/21 00:00:28;;;;;;;15.53;10.20;;;-3.30;99.90;;;;;;5000007;28;20183;-39
2023/01/21 00:02:54;;;;;;;18.43;10.00;;;-3.40;99.90;;;;;;5026891;28;20207;-40
2023/01/21 00:05:20;;;;;;;17.67;10.50;;;-3.40;99.90;;;;;;5016533;28;20309;-41
2023/01/21 00:07:45;;;;;;;17.23;10.87;;;-3.40;99.90;;;;;;5032778;28;20282;-41
2023/01/21 00:10:11;;;;;;;17.00;10.53;;;-3.40;99.90;;;;;;5016428;28;20194;-41
2023/01/21 00:12:37;;;;;;;16.63;10.67;;;-3.40;99.90;;;;;;5015846;28;20179;-41
2023/01/21 00:15:03;;;;;;;13.47;8.60;;;-3.40;99.90;;;;;;5032441;28;20186;-41
2023/01/21 00:17:34;;;;;;;15.03;9.27;;;-3.40;99.90;;;;;;5033141;28;20209;-39
2023/01/21 00:20:00;;;;;;;13.87;8.50;;;-3.40;99.90;;;;;;5033345;28;20220;-41
2023/01/21 00:22:26;;;;;;;12.97;7.80;;;-3.40;99.90;;;;;;5031298;28;20199;-40
2023/01/21 00:24:52;;;;;;;13.33;8.00;;;-3.40;99.90;;;;;;5015070;28;20179;-41
2023/01/21 00:27:18;;;;;;;12.47;7.97;;;-3.50;99.90;;;;;;5012848;28;20217;-40
2023/01/21 00:29:43;;;;;;;12.03;6.97;;;-3.50;99.90;;;;;;5024563;28;20190;-41
2023/01/21 00:32:09;;;;;;;10.63;7.37;;;-3.60;99.90;;;;;;5015445;28;20174;-40
2023/01/21 00:34:35;;;;;;;11.33;7.40;;;-3.60;99.90;;;;;;5032698;28;20521;-42
2023/01/21 00:37:01;;;;;;;13.27;7.67;;;-3.60;99.90;;;;;;5015328;28;20178;-41
2023/01/21 00:39:27;;;;;;;10.40;6.80;;;-3.60;99.90;;;;;;5015122;28;20186;-40
2023/01/21 00:41:52;;;;;;;13.33;8.13;;;-3.60;99.90;;;;;;5032087;28;20222;-41
2023/01/21 00:44:18;;;;;;;14.67;7.50;;;-3.60;99.90;;;;;;5032368;28;20210;-41
2023/01/21 00:46:44;;;;;;;12.67;7.67;;;-3.60;99.90;;;;;;5033679;28;20230;-41
2023/01/21 00:49:10;;;;;;;18.13;9.40;;;-3.70;99.90;;;;;;5015168;28;20256;-41
2023/01/21 00:51:35;;;;;;;16.33;9.27;;;-3.70;99.90;;;;;;5032116;28;20178;-35
2023/01/21 00:54:01;;;;;;;16.00;10.03;;;-3.70;99.90;;;;;;5033053;28;20178;-41
2023/01/21 00:56:27;;;;;;;19.70;10.17;;;-3.80;99.90;;;;;;5015861;28;20187;-41
2023/01/21 00:58:53;;;;;;;16.57;9.60;;;-3.70;99.90;;;;;;5005385;28;20202;-41
2023/01/21 01:01:20;;;;;;;17.17;10.00;;;-3.80;99.90;;;;;;5031732;28;20175;-41
2023/01/21 01:03:48;;;;;;;20.30;10.50;;;-3.70;99.90;;;;;;5015183;28;20329;-41
2023/01/21 01:06:23;;;;;;;16.97;9.97;;;-3.70;99.90;;;;;;5031812;28;20603;-41
2023/01/21 01:08:49;;;;;;;18.10;10.10;;;-3.60;99.90;;;;;;5032844;28;20236;-39
2023/01/21 01:11:16;;;;;;;18.13;11.00;;;-3.60;99.90;;;;;;5032973;28;20186;-39
2023/01/21 01:13:42;;;;;;;19.63;10.83;;;-3.60;99.90;;;;;;5032730;28;20179;-42
2023/01/21 01:16:09;;;;;;;19.23;11.33;;;-3.60;99.90;;;;;;4999042;28;20198;-42
2023/01/21 01:18:36;;;;;;;17.07;10.87;;;-3.60;99.90;;;;;;5014325;28;20221;-41
2023/01/21 01:21:03;;;;;;;22.73;12.00;;;-3.60;99.90;;;;;;5031681;28;20202;-39
2023/01/21 01:23:29;;;;;;;21.37;12.13;;;-3.60;99.90;;;;;;5019097;28;20260;-42
2023/01/21 01:26:06;;;;;;;16.40;9.83;;;-3.60;99.90;;;;;;5032663;28;20182;-38
2023/01/21 01:28:33;;;;;;;17.17;9.87;;;-3.60;99.90;;;;;;5014142;28;20253;-40
2023/01/21 01:31:00;;;;;;;17.17;9.87;;;-3.60;99.90;;;;;;5014257;28;20183;-41
2023/01/21 01:33:26;;;;;;;19.03;10.23;;;-3.70;99.90;;;;;;5031338;28;20193;-38
2023/01/21 01:35:52;;;;;;;16.37;10.43;;;-3.80;99.90;;;;;;5032511;28;20178;-38
2023/01/21 01:38:20;;;;;;;16.83;10.07;;;-3.80;99.90;;;;;;5032689;28;20264;-38
2023/01/21 01:40:48;;;;;;;16.63;10.00;;;-3.70;99.90;;;;;;4997861;28;20179;-40
2023/01/21 01:43:23;;;;;;;14.33;9.57;;;-3.70;99.90;;;;;;5031927;28;20211;-42
2023/01/21 01:45:49;;;;;;;16.97;9.73;;;-3.70;99.90;;;;;;5031130;28;20170;-41
2023/01/21 01:48:28;;;;;;;15.87;9.20;;;-3.80;99.90;;;;;;5031270;28;20198;-41
2023/01/21 01:50:58;;;;;;;17.43;10.13;;;-3.80;99.90;;;;;;5029429;28;20178;-41
2023/01/21 01:53:25;;;;;;;14.87;9.17;;;-3.80;99.90;;;;;;5032030;28;20186;-41
2023/01/21 01:55:52;;;;;;;16.47;10.23;;;-3.80;99.90;;;;;;5013834;28;20648;-41
2023/01/21 01:58:19;;;;;;;14.43;9.03;;;-3.80;99.90;;;;;;5014155;28;20205;-39
2023/01/21 02:00:45;;;;;;;16.63;10.70;;;-3.80;99.90;;;;;;5014116;28;20191;-38
2023/01/21 02:05:56;;;;;;;14.43;8.53;;;-3.90;99.90;;;;;;5014132;28;20270;-41
2023/01/21 02:08:23;;;;;;;20.43;9.97;;;-3.90;99.90;;;;;;5030521;28;20639;-39
2023/01/21 02:10:49;;;;;;;14.30;9.60;;;-3.90;99.90;;;;;;5030676;28;20179;-41
2023/01/21 02:13:15;;;;;;;15.80;9.47;;;-3.90;99.90;;;;;;5030825;28;20210;-41
2023/01/21 02:15:52;;;;;;;16.57;8.97;;;-3.90;99.90;;;;;;5031624;28;20190;-41
2023/01/21 02:18:44;;;;;;;14.97;8.77;;;-4.00;99.90;;;;;;5029793;28;20194;-39
2023/01/21 02:21:23;;;;;;;13.43;8.87;;;-4.00;99.90;;;;;;4993466;28;20190;-41
2023/01/21 02:24:22;;;;;;;14.53;8.63;;;-4.00;99.90;;;;;;5013699;28;20229;-41
2023/01/21 02:27:14;;;;;;;15.60;8.90;;;-4.00;99.90;;;;;;5013435;28;20170;-36
2023/01/21 02:30:14;;;;;;;15.50;8.50;;;-4.10;99.90;;;;;;4993987;28;20187;-41
2023/01/21 02:32:59;;;;;;;15.27;8.97;;;-4.10;99.90;;;;;;5014087;28;20644;-41
2023/01/21 02:35:54;;;;;;;15.57;8.43;;;-4.20;99.90;;;;;;5031067;28;20182;-38
2023/01/21 02:38:33;;;;;;;14.73;8.80;;;-4.20;99.90;;;;;;5031254;28;20221;-40
2023/01/21 02:41:13;;;;;;;16.53;8.63;;;-4.30;99.90;;;;;;5031428;28;20179;-38
2023/01/21 02:43:46;;;;;;;10.73;7.50;;;-4.40;99.90;;;;;;5030000;28;20248;-40
2023/01/21 02:46:22;;;;;;;14.70;8.57;;;-4.40;99.90;;;;;;5031389;28;20171;-38
2023/01/21 02:49:03;;;;;;;13.63;8.37;;;-4.50;99.90;;;;;;5013009;28;20200;-36
2023/01/21 02:51:28;;;;;;;13.70;8.20;;;-4.50;99.90;;;;;;5013694;28;20182;-33
2023/01/21 02:53:54;;;;;;;12.20;8.40;;;-4.50;99.90;;;;;;5031288;28;20178;-35
2023/01/21 02:56:26;;;;;;;15.57;8.67;;;-4.60;99.90;;;;;;5013506;28;20218;-38
2023/01/21 02:59:00;;;;;;;15.20;8.03;;;-4.60;99.90;;;;;;5030511;28;20260;-39
2023/01/21 03:01:38;;;;;;;11.67;7.93;;;-4.60;99.90;;;;;;5022990;28;20293;-36
2023/01/21 03:04:31;;;;;;;14.33;8.03;;;-4.60;99.90;;;;;;5031026;28;20221;-38
2023/01/21 03:07:03;;;;;;;15.40;9.33;;;-4.60;99.90;;;;;;5029542;28;20191;-39
2023/01/21 03:09:31;;;;;;;16.87;9.43;;;-4.60;99.90;;;;;;5029383;28;20181;-38
2023/01/21 03:12:21;;;;;;;17.40;9.23;;;-4.60;99.90;;;;;;5029914;28;20684;-39
2023/01/21 03:18:20;;;;;;;12.70;8.57;;;-4.70;99.90;;;;;;5029417;28;20203;-37
2023/01/21 03:20:52;;;;;;;15.20;9.27;;;-4.80;99.90;;;;;;5029537;28;20186;-36
2023/01/21 03:23:26;;;;;;;15.80;9.20;;;-4.80;99.90;;;;;;5030623;28;20210;-33
2023/01/21 03:25:53;;;;;;;16.37;9.90;;;-4.80;99.90;;;;;;5013375;28;20179;-36
2023/01/21 03:28:22;;;;;;;16.70;9.43;;;-4.90;99.90;;;;;;5012767;28;20202;-37
2023/01/21 03:31:00;;;;;;;16.03;8.57;;;-5.00;99.90;;;;;;5005208;28;20205;-37
2023/01/21 03:33:28;;;;;;;13.60;8.23;;;-5.00;99.90;;;;;;5030585;28;20269;-35
2023/01/21 03:35:57;;;;;;;14.60;9.37;;;-5.00;99.90;;;;;;5038883;28;20209;-39
2023/01/21 03:38:35;;;;;;;15.23;9.47;;;-4.90;99.90;;;;;;5032727;28;20288;-37
2023/01/21 03:41:04;;;;;;;13.57;7.77;;;-4.90;99.90;;;;;;5009263;28;20198;-33
2023/01/21 03:43:30;;;;;;;15.60;8.67;;;-4.90;99.90;;;;;;5015304;28;20293;-35
2023/01/21 03:46:13;;;;;;;16.13;8.60;;;-4.90;99.90;;;;;;5012987;28;20182;-35
2023/01/21 03:49:01;;;;;;;15.13;8.40;;;-4.90;99.90;;;;;;4997836;28;20202;-38
2023/01/21 03:51:37;;;;;;;15.57;8.43;;;-5.00;99.90;;;;;;4996616;28;20201;-37
2023/01/21 03:54:03;;;;;;;13.83;7.70;;;-5.00;99.90;;;;;;5030799;28;20268;-36
2023/01/21 03:56:29;;;;;;;12.43;7.63;;;-5.00;99.90;;;;;;5030013;28;20627;-35
2023/01/21 03:58:55;;;;;;;14.10;7.70;;;-5.00;99.90;;;;;;5030351;28;20226;-34
2023/01/21 04:01:21;;;;;;;12.83;7.50;;;-5.00;99.90;;;;;;5012405;28;20640;-37
2023/01/21 04:03:46;;;;;;;12.33;8.10;;;-5.00;99.90;;;;;;5030390;28;20202;-36
2023/01/21 04:06:14;;;;;;;11.83;7.70;;;-4.90;99.90;;;;;;5030350;28;20183;-33
2023/01/21 04:08:40;;;;;;;12.70;8.17;;;-4.90;99.90;;;;;;5030309;28;20202;-37
2023/01/21 04:11:06;;;;;;;12.70;7.37;;;-4.90;99.90;;;;;;5012581;28;20179;-33
2023/01/21 04:13:31;;;;;;;12.13;7.47;;;-4.90;99.90;;;;;;5013308;28;20174;-38
2023/01/21 04:15:57;;;;;;;11.37;7.53;;;-4.90;99.90;;;;;;5015993;28;20178;-36
2023/01/21 04:18:23;;;;;;;12.47;7.67;;;-4.90;99.90;;;;;;5033612;28;20321;-35
2023/01/21 04:20:49;;;;;;;11.37;7.00;;;-4.90;99.90;;;;;;5032308;28;20252;-36
2023/01/21 04:23:14;;;;;;;13.03;7.50;;;-4.80;99.90;;;;;;5032527;28;20301;-36
2023/01/21 04:25:40;;;;;;;12.17;6.83;;;-4.90;99.90;;;;;;5034222;28;20183;-33
2023/01/21 04:28:06;;;;;;;10.53;6.80;;;-4.90;99.90;;;;;;5015733;28;20213;-38
2023/01/21 04:30:32;;;;;;;11.20;6.67;;;-4.90;99.90;;;;;;5032173;28;20175;-35
2023/01/21 04:32:57;;;;;;;10.70;6.43;;;-4.90;99.90;;;;;;5032412;28;20266;-39
2023/01/21 04:35:23;;;;;;;10.80;6.57;;;-4.90;99.90;;;;;;5031913;28;20186;-37
2023/01/21 04:37:49;;;;;;;10.63;6.50;;;-4.90;99.90;;;;;;5015851;28;20252;-33
2023/01/21 04:40:15;;;;;;;9.97;6.33;;;-4.90;99.90;;;;;;5015592;28;20174;-38
2023/01/21 04:42:41;;;;;;;9.23;6.47;;;-4.90;99.90;;;;;;5015498;28;20285;-38
2023/01/21 04:45:07;;;;;;;9.13;5.93;;;-5.00;99.90;;;;;;5015978;28;20177;-35
2023/01/21 04:47:33;;;;;;;10.07;5.70;;;-5.00;99.90;;;;;;5015601;28;20221;-37
2023/01/21 04:49:59;;;;;;;11.70;6.57;;;-5.00;99.90;;;;;;5014752;28;20206;-38
2023/01/21 04:52:25;;;;;;;8.97;6.20;;;-5.00;99.90;;;;;;5015623;28;20179;-35
2023/01/21 04:54:51;;;;;;;11.27;6.60;;;-5.00;99.90;;;;;;5031954;28;20179;-33
2023/01/21 04:57:16;;;;;;;12.57;7.60;;;-5.00;99.90;;;;;;5031947;28;20675;-36
2023/01/21 04:59:42;;;;;;;14.10;7.93;;;-5.10;99.90;;;;;;5032463;28;20187;-35
2023/01/21 05:02:08;;;;;;;17.33;9.73;;;-5.10;99.90;;;;;;5033713;28;20209;-36
2023/01/21 05:04:34;;;;;;;15.10;9.00;;;-5.10;99.90;;;;;;5032821;28;20179;-38
2023/01/21 05:07:00;;;;;;;18.70;8.93;;;-5.10;99.90;;;;;;5015289;28;20240;-35
2023/01/21 05:09:26;;;;;;;15.67;9.23;;;-5.10;99.90;;;;;;5014869;28;20183;-36
2023/01/21 05:11:51;;;;;;;26.90;14.00;;;-5.10;99.90;;;;;;5033073;28;20269;-37
2023/01/21 05:14:17;;;;;;;25.50;12.80;;;-5.10;99.90;;;;;;5032521;28;20277;-32
2023/01/21 05:16:43;;;;;;;21.37;11.77;;;-5.10;99.90;;;;;;5015370;28;20702;-36
2023/01/21 05:19:09;;;;;;;25.97;11.93;;;-5.10;99.90;;;;;;5014461;28;20208;-37
2023/01/21 05:21:35;;;;;;;25.03;12.13;;;-5.10;99.90;;;;;;5015069;28;20256;-38
2023/01/21 05:24:01;;;;;;;24.43;11.70;;;-5.00;99.90;;;;;;5031358;28;20238;-38
2023/01/21 05:26:26;;;;;;;19.63;10.30;;;-5.10;99.90;;;;;;5032455;28;20245;-32
2023/01/21 05:28:52;;;;;;;17.30;8.93;;;-5.10;99.90;;;;;;5014115;28;20571;-36
2023/01/21 05:31:18;;;;;;;15.87;9.70;;;-5.10;99.90;;;;;;5015909;28;20203;-40
2023/01/21 05:33:45;;;;;;;15.80;9.00;;;-5.10;99.90;;;;;;5016133;28;20186;-39
2023/01/21 05:36:12;;;;;;;15.60;8.77;;;-5.10;99.90;;;;;;5014591;28;20186;-41
2023/01/21 05:38:38;;;;;;;16.77;8.60;;;-5.20;99.90;;;;;;5030854;28;20224;-40
2023/01/21 05:41:04;;;;;;;14.30;8.77;;;-5.20;99.90;;;;;;5014553;28;20190;-40
2023/01/21 05:43:29;;;;;;;16.73;9.47;;;-5.20;99.90;;;;;;5014413;28;20206;-41
2023/01/21 05:45:55;;;;;;;14.30;9.03;;;-5.20;99.90;;;;;;5014113;28;20240;-40
2023/01/21 05:48:22;;;;;;;16.23;9.23;;;-5.20;99.90;;;;;;5032156;28;20194;-40
2023/01/21 05:50:48;;;;;;;14.60;8.93;;;-5.20;99.90;;;;;;4994530;28;20225;-40
2023/01/21 05:53:15;;;;;;;15.43;9.00;;;-5.20;99.90;;;;;;4995032;28;20270;-40
2023/01/21 05:55:41;;;;;;;16.00;8.80;;;-5.20;99.90;;;;;;5010651;28;20366;-41
2023/01/21 05:58:07;;;;;;;15.10;9.10;;;-5.20;99.90;;;;;;5021810;28;20281;-42
2023/01/21 06:00:33;;;;;;;13.97;8.83;;;-5.30;99.90;;;;;;5028545;28;20193;-38
2023/01/21 06:03:00;;;;;;;13.67;9.50;;;-5.30;99.90;;;;;;5030688;28;20205;-40
2023/01/21 06:05:27;;;;;;;15.00;9.03;;;-5.30;99.90;;;;;;5028160;28;20190;-36
2023/01/21 06:07:53;;;;;;;15.40;9.20;;;-5.40;99.90;;;;;;5012477;28;20202;-41
2023/01/21 06:10:19;;;;;;;14.70;8.90;;;-5.40;99.90;;;;;;5013425;28;20277;-40
2023/01/21 06:12:45;;;;;;;12.77;8.60;;;-5.40;99.90;;;;;;5013721;28;20186;-39
2023/01/21 06:15:12;;;;;;;14.93;9.27;;;-5.40;99.90;;;;;;5031793;28;20664;-41
2023/01/21 06:17:39;;;;;;;14.20;8.90;;;-5.50;99.90;;;;;;5031758;28;20206;-39
2023/01/21 06:20:06;;;;;;;15.73;9.50;;;-5.50;99.90;;;;;;5030043;28;20248;-40
2023/01/21 06:22:32;;;;;;;15.00;9.60;;;-5.60;99.90;;;;;;5013837;28;20206;-41
2023/01/21 06:24:58;;;;;;;14.20;8.77;;;-5.60;99.90;;;;;;5031313;28;20186;-39
2023/01/21 06:27:23;;;;;;;15.80;8.73;;;-5.60;99.90;;;;;;5013336;28;20217;-41
2023/01/21 06:29:49;;;;;;;15.70;8.67;;;-5.70;99.90;;;;;;5029587;28;20174;-38
2023/01/21 06:32:15;;;;;;;14.10;8.47;;;-5.70;99.90;;;;;;5030661;28;20270;-40
2023/01/21 06:34:41;;;;;;;15.10;8.30;;;-5.80;99.90;;;;;;5013062;28;20197;-40
2023/01/21 06:37:07;;;;;;;12.00;8.07;;;-5.90;99.90;;;;;;5029621;28;20273;-40
2023/01/21 06:39:32;;;;;;;12.37;8.00;;;-5.90;99.90;;;;;;5013629;28;20189;-41
2023/01/21 06:41:58;;;;;;;13.33;8.33;;;-5.80;99.90;;;;;;5030087;28;20205;-40
2023/01/21 06:44:24;;;;;;;15.27;8.20;;;-5.80;99.90;;;;;;5031273;28;20181;-41
2023/01/21 06:46:50;;;;;;;14.90;8.30;;;-5.70;99.90;;;;;;5029689;28;20296;-40
2023/01/21 06:49:16;;;;;;;15.77;9.17;;;-5.70;99.90;;;;;;4996989;28;20269;-40
2023/01/21 06:51:42;;;;;;;14.23;8.67;;;-5.70;99.90;;;;;;5029364;28;20185;-41
2023/01/21 06:54:10;;;;;;;15.43;9.00;;;-5.60;99.90;;;;;;5013506;28;20210;-40
2023/01/21 06:56:35;;;;;;;20.90;11.17;;;-5.50;99.90;;;;;;5029940;28;20257;-40
2023/01/21 06:59:02;;;;;;;26.80;14.20;;;-5.50;99.90;;;;;;5022399;28;20325;-41
2023/01/21 07:01:28;;;;;;;18.40;10.77;;;-5.40;99.90;;;;;;5028029;28;20182;-41
2023/01/21 07:03:54;;;;;;;17.43;10.60;;;-5.40;99.90;;;;;;5029496;28;20190;-42
2023/01/21 07:06:24;;;;;;;17.77;10.03;;;-5.40;99.90;;;;;;5030716;28;20186;-40
2023/01/21 07:08:50;;;;;;;17.20;10.90;;;-5.30;99.90;;;;;;5029831;28;20202;-39
2023/01/21 07:11:15;;;;;;;16.80;10.33;;;-5.30;99.90;;;;;;5013232;28;20186;-41
2023/01/21 07:13:41;;;;;;;19.47;10.17;;;-5.30;99.90;;;;;;4996732;28;20322;-41
2023/01/21 07:16:07;;;;;;;14.13;8.90;;;-5.30;99.90;;;;;;5030398;28;20186;-40
2023/01/21 07:18:33;;;;;;;14.23;9.17;;;-5.30;99.90;;;;;;5026117;28;20207;-39
2023/01/21 07:20:59;;;;;;;17.90;10.40;;;-5.30;99.90;;;;;;5028747;28;20205;-40
2023/01/21 07:23:25;;;;;;;15.67;9.73;;;-5.20;99.90;;;;;;5023043;28;20175;-37
2023/01/21 07:25:51;;;;;;;16.07;9.80;;;-5.20;99.90;;;;;;5029522;28;20189;-41
2023/01/21 07:28:17;;;;;;;16.83;9.40;;;-5.20;99.90;;;;;;5012755;28;20203;-41
2023/01/21 07:30:43;;;;;;;17.77;10.07;;;-5.10;99.90;;;;;;5030259;28;20186;-40
2023/01/21 07:33:09;;;;;;;18.57;10.60;;;-5.10;99.90;;;;;;4995124;28;20293;-41
2023/01/21 07:35:35;;;;;;;14.53;9.33;;;-5.10;99.90;;;;;;4997700;28;20179;-40
2023/01/21 07:38:02;;;;;;;16.70;9.23;;;-5.10;99.90;;;;;;4998661;28;20261;-41
2023/01/21 07:40:28;;;;;;;16.90;9.77;;;-5.00;99.90;;;;;;4998347;28;20202;-40
2023/01/21 07:42:55;;;;;;;15.60;10.00;;;-5.00;99.90;;;;;;5015070;28;20202;-39
2023/01/21 07:45:22;;;;;;;17.33;10.37;;;-5.00;99.90;;;;;;5014736;28;20183;-41
2023/01/21 07:47:48;;;;;;;15.60;9.90;;;-4.90;99.90;;;;;;5014802;28;20240;-39
2023/01/21 07:50:15;;;;;;;13.83;9.53;;;-4.90;99.90;;;;;;5034125;28;20187;-41
2023/01/21 07:52:41;;;;;;;20.33;10.07;;;-4.80;99.90;;;;;;5018657;28;20229;-35
2023/01/21 07:55:08;;;;;;;17.83;10.87;;;-4.80;99.90;;;;;;5018057;28;20183;-36
2023/01/21 07:57:34;;;;;;;15.87;9.77;;;-4.80;99.90;;;;;;5035963;28;20202;-35
2023/01/21 08:00:00;;;;;;;16.87;10.07;;;-4.70;99.90;;;;;;5035596;28;20171;-36
2023/01/21 08:02:25;;;;;;;18.80;10.10;;;-4.80;99.90;;;;;;5018363;28;20170;-36
2023/01/21 08:04:54;;;;;;;16.73;10.53;;;-4.70;99.90;;;;;;5016833;28;20186;-35
2023/01/21 08:07:24;;;;;;;21.17;11.30;;;-4.70;99.90;;;;;;5018083;28;20201;-38
2023/01/21 08:09:50;;;;;;;17.83;10.20;;;-4.70;99.90;;;;;;5017930;28;20194;-39
2023/01/21 08:12:17;;;;;;;20.57;10.60;;;-4.60;99.90;;;;;;5035632;28;20198;-34
2023/01/21 08:14:43;;;;;;;22.17;11.90;;;-4.60;99.90;;;;;;5034006;28;20262;-39
2023/01/21 08:17:08;;;;;;;18.20;10.20;;;-4.60;99.90;;;;;;5030550;28;20203;-40
2023/01/21 08:19:35;;;;;;;16.63;9.50;;;-4.60;99.90;;;;;;5028162;28;20194;-41
2023/01/21 08:22:00;;;;;;;17.63;9.73;;;-4.60;99.90;;;;;;5036505;28;20202;-41
2023/01/21 08:24:26;;;;;;;20.27;13.37;;;-4.50;99.90;;;;;;5032501;28;20213;-41
2023/01/21 08:26:57;;;;;;;19.60;12.23;;;-4.50;99.90;;;;;;5031898;28;20179;-41
2023/01/21 08:29:24;;;;;;;17.77;10.70;;;-4.50;99.90;;;;;;5010110;28;20175;-40
2023/01/21 08:31:51;;;;;;;16.50;9.83;;;-4.50;99.90;;;;;;5011989;28;20175;-41
2023/01/21 08:34:17;;;;;;;18.30;9.73;;;-4.40;99.90;;;;;;5032960;28;20170;-40
2023/01/21 08:36:43;;;;;;;17.73;10.60;;;-4.40;99.90;;;;;;5027700;28;20179;-41
2023/01/21 08:39:12;;;;;;;19.70;11.73;;;-4.40;99.90;;;;;;5032961;28;20190;-41
2023/01/21 08:41:39;;;;;;;19.63;11.83;;;-4.40;99.90;;;;;;5032314;28;20265;-42
2023/01/21 08:44:06;;;;;;;17.63;10.93;;;-4.30;99.90;;;;;;5014802;28;20220;-41
2023/01/21 08:46:32;;;;;;;18.40;10.77;;;-4.30;99.90;;;;;;5017240;28;20189;-41
2023/01/21 08:48:59;;;;;;;15.23;9.57;;;-4.30;99.90;;;;;;5014016;28;20201;-38
2023/01/21 08:51:24;;;;;;;15.13;9.20;;;-4.30;99.90;;;;;;5033283;28;20193;-41
2023/01/21 08:53:51;;;;;;;15.47;10.07;;;-4.30;99.90;;;;;;5033339;28;20195;-42
2023/01/21 08:56:18;;;;;;;17.30;11.47;;;-4.20;99.90;;;;;;5032620;28;20167;-38
2023/01/21 08:58:44;;;;;;;21.20;13.13;;;-4.10;99.90;;;;;;5031798;28;20194;-39
2023/01/21 09:01:14;;;;;;;22.90;12.50;;;-4.10;99.90;;;;;;5028084;28;20262;-40
2023/01/21 09:03:40;;;;;;;18.03;11.07;;;-4.10;99.90;;;;;;5029676;28;20269;-40
2023/01/21 09:06:07;;;;;;;23.23;13.33;;;-4.00;99.90;;;;;;5031704;28;20274;-41
2023/01/21 09:08:33;;;;;;;22.43;11.87;;;-4.00;99.90;;;;;;5033021;28;20199;-40
2023/01/21 09:11:00;;;;;;;20.60;12.03;;;-3.90;99.90;;;;;;5032518;28;20270;-41
2023/01/21 09:13:29;;;;;;;23.97;13.17;;;-3.90;99.90;;;;;;5014587;28;20214;-40
2023/01/21 09:15:55;;;;;;;23.97;13.77;;;-3.80;99.90;;;;;;5032814;28;20181;-38
2023/01/21 09:18:21;;;;;;;24.53;14.50;;;-3.80;99.90;;;;;;5014379;28;20204;-41
2023/01/21 09:20:47;;;;;;;25.37;13.33;;;-3.70;99.90;;;;;;5030117;28;20265;-39
2023/01/21 09:23:26;;;;;;;22.93;13.83;;;-3.60;99.90;;;;;;5032563;28;20174;-40
2023/01/21 09:26:02;;;;;;;21.80;12.83;;;-3.60;99.90;;;;;;5014423;28;20178;-40
2023/01/21 09:28:30;;;;;;;21.17;12.10;;;-3.50;99.90;;;;;;5031549;28;20202;-40
2023/01/21 09:31:06;;;;;;;19.20;11.80;;;-3.50;99.90;;;;;;4998409;28;20213;-41
2023/01/21 09:33:36;;;;;;;20.63;11.67;;;-3.40;99.90;;;;;;5008516;28;20198;-38
2023/01/21 09:36:05;;;;;;;24.27;14.13;;;-3.40;99.90;;;;;;5023008;28;20187;-41
2023/01/21 09:38:32;;;;;;;21.93;13.73;;;-3.40;99.90;;;;;;5021751;28;20201;-41
2023/01/21 09:41:12;;;;;;;23.03;13.10;;;-3.50;99.90;;;;;;5004692;28;20171;-41
2023/01/21 09:44:01;;;;;;;20.87;12.97;;;-3.40;99.90;;;;;;5027950;28;20214;-41
2023/01/21 09:46:35;;;;;;;19.83;11.80;;;-3.40;99.90;;;;;;5015831;28;20217;-41
2023/01/21 09:49:05;;;;;;;21.10;12.33;;;-3.40;99.90;;;;;;5029522;28;20206;-39
2023/01/21 09:51:44;;;;;;;21.37;13.10;;;-3.40;99.90;;;;;;5018346;28;20237;-41
2023/01/21 09:54:25;;;;;;;24.20;13.60;;;-3.30;99.90;;;;;;5031360;28;20210;-41
2023/01/21 09:57:12;;;;;;;23.57;13.13;;;-3.30;99.90;;;;;;5029570;28;20218;-42
2023/01/21 09:59:44;;;;;;;24.43;13.83;;;-3.20;99.90;;;;;;5029039;28;20175;-39
2023/01/21 10:02:45;;;;;;;25.47;14.10;;;-3.20;99.90;;;;;;5030128;28;20265;-40
2023/01/21 10:05:23;;;;;;;25.40;14.20;;;-3.10;99.90;;;;;;4993635;28;20194;-41
2023/01/21 10:07:52;;;;;;;23.00;14.73;;;-3.00;99.90;;;;;;5025461;28;20190;-42
2023/01/21 10:10:32;;;;;;;24.97;15.43;;;-3.00;99.90;;;;;;5031928;28;20313;-42
2023/01/21 10:13:13;;;;;;;24.83;14.40;;;-2.90;99.90;;;;;;5013904;28;20198;-41
2023/01/21 10:16:07;;;;;;;20.37;13.23;;;-2.90;99.90;;;;;;5013708;28;20191;-42
2023/01/21 10:18:37;;;;;;;27.87;14.43;;;-2.80;99.90;;;;;;5031054;28;20218;-41
2023/01/21 10:21:31;;;;;;;22.47;14.03;;;-2.70;99.90;;;;;;5015352;28;20178;-41
2023/01/21 10:24:08;;;;;;;26.00;14.20;;;-2.70;99.90;;;;;;5030862;28;20769;-41
2023/01/21 10:26:35;;;;;;;21.93;13.33;;;-2.60;99.90;;;;;;5032052;28;20187;-41
2023/01/21 10:29:02;;;;;;;19.00;12.77;;;-2.50;99.90;;;;;;5031113;28;20194;-41
2023/01/21 10:31:32;;;;;;;21.40;13.50;;;-2.40;99.90;;;;;;5031663;28;20179;-40
2023/01/21 10:33:58;;;;;;;27.13;16.17;;;-2.40;99.90;;;;;;5030620;28;20201;-42
2023/01/21 10:36:40;;;;;;;24.53;14.20;;;-2.30;99.90;;;;;;5015098;28;20179;-42
2023/01/21 10:39:25;;;;;;;25.50;14.17;;;-2.20;99.90;;;;;;5026878;28;20217;-41
2023/01/21 10:42:09;;;;;;;25.67;14.27;;;-2.20;99.90;;;;;;5029716;28;20721;-42
2023/01/21 10:44:43;;;;;;;23.07;14.33;;;-2.10;99.90;;;;;;5030860;28;20178;-41
2023/01/21 10:47:15;;;;;;;24.30;13.67;;;-2.10;99.90;;;;;;5028963;28;20206;-41
2023/01/21 10:49:59;;;;;;;23.57;14.60;;;-2.10;99.90;;;;;;5027351;28;20173;-41
2023/01/21 10:52:50;;;;;;;26.70;14.67;;;-2.20;99.90;;;;;;5027881;28;20225;-42
2023/01/21 10:55:19;;;;;;;21.67;13.33;;;-2.10;99.90;;;;;;4985838;28;20182;-41
2023/01/21 10:58:17;;;;;;;18.37;11.67;;;-2.30;99.90;;;;;;5027417;28;20203;-41
2023/01/21 11:00:47;;;;;;;20.97;12.63;;;-2.30;99.90;;;;;;5023275;28;20195;-41
2023/01/21 11:03:21;;;;;;;21.67;12.80;;;-2.30;99.90;;;;;;5011232;28;20244;-39
2023/01/21 11:05:47;;;;;;;18.03;11.67;;;-2.30;99.90;;;;;;5010667;28;20214;-41
2023/01/21 11:08:21;;;;;;;21.53;12.40;;;-2.30;99.90;;;;;;5026708;28;20203;-36
2023/01/21 11:10:50;;;;;;;20.47;12.77;;;-2.20;99.90;;;;;;4992372;28;20187;-41
2023/01/21 11:13:17;;;;;;;21.00;13.30;;;-2.20;99.90;;;;;;4993182;28;20243;-42
2023/01/21 11:15:50;;;;;;;23.60;13.27;;;-2.20;99.90;;;;;;5011954;28;20267;-42
2023/01/21 11:18:38;;;;;;;24.03;14.03;;;-2.10;99.90;;;;;;5026193;28;20195;-42
2023/01/21 11:21:19;;;;;;;29.50;17.57;;;-2.10;99.90;;;;;;5027921;28;20659;-39
2023/01/21 11:23:58;;;;;;;31.60;18.87;;;-2.00;99.90;;;;;;5008845;28;20555;-42
2023/01/21 11:26:32;;;;;;;33.47;18.80;;;-1.90;99.90;;;;;;5011964;28;20186;-41
2023/01/21 11:29:17;;;;;;;30.73;17.80;;;-1.90;99.90;;;;;;5003053;28;20229;-41
2023/01/21 11:34:22;;;;;;;26.70;16.20;;;-1.80;99.90;;;;;;4999204;28;20269;-38
2023/01/21 11:37:05;;;;;;;25.20;15.37;;;-1.70;99.90;;;;;;4968197;28;20187;-39
2023/01/21 11:39:40;;;;;;;25.60;14.30;;;-1.70;99.90;;;;;;4981418;28;20214;-40
2023/01/21 11:42:15;;;;;;;29.60;14.30;;;-1.50;99.90;;;;;;4968154;28;20239;-41
2023/01/21 11:45:03;;;;;;;36.73;20.60;;;-1.50;99.90;;;;;;4979269;28;20180;-40
2023/01/21 11:47:48;;;;;;;32.57;17.50;;;-1.40;99.90;;;;;;4957892;28;20184;-41
2023/01/21 11:50:27;;;;;;;26.30;14.43;;;-1.30;99.90;;;;;;4974176;28;20188;-38
2023/01/21 11:53:18;;;;;;;25.30;15.40;;;-1.30;99.90;;;;;;4947972;28;20259;-38
2023/01/21 11:55:55;;;;;;;26.50;14.87;;;-1.20;99.90;;;;;;4971428;28;20255;-38
2023/01/21 11:58:39;;;;;;;26.73;14.33;;;-1.20;99.90;;;;;;4973923;28;20179;-40
2023/01/21 12:01:10;;;;;;;28.17;16.30;;;-1.20;99.90;;;;;;4960890;28;20199;-38
2023/01/21 12:03:54;;;;;;;25.50;14.40;;;-1.20;99.90;;;;;;4974358;28;20284;-39
2023/01/21 12:06:25;;;;;;;27.63;14.30;;;-1.20;99.90;;;;;;4974203;28;20279;-38
2023/01/21 12:08:56;;;;;;;27.07;15.00;;;-1.20;99.90;;;;;;4975942;28;20185;-38
2023/01/21 12:11:26;;;;;;;36.07;18.70;;;-1.20;99.90;;;;;;4962216;28;20200;-39
2023/01/21 12:14:17;;;;;;;62.00;27.47;;;-1.10;99.90;;;;;;4963033;28;20200;-42
2023/01/21 12:17:00;;;;;;;33.00;17.23;;;-1.20;99.90;;;;;;4975403;28;20223;-38
2023/01/21 12:20:04;;;;;;;32.40;17.70;;;-1.20;99.90;;;;;;4976112;28;20177;-37
2023/01/21 12:22:50;;;;;;;23.80;13.60;;;-1.10;99.90;;;;;;4976467;28;20219;-36
2023/01/21 12:25:39;;;;;;;26.57;14.57;;;-1.10;99.90;;;;;;4937071;28;20188;-38
2023/01/21 12:28:26;;;;;;;30.67;15.67;;;-1.10;99.90;;;;;;4959101;28;20217;-37
2023/01/21 12:30:58;;;;;;;28.67;16.33;;;-1.10;99.90;;;;;;4962592;28;20616;-37
2023/01/21 12:33:29;;;;;;;27.23;15.20;;;-1.10;99.90;;;;;;4972296;28;20216;-37
2023/01/21 12:36:05;;;;;;;25.97;14.20;;;-1.10;99.90;;;;;;4971144;28;20193;-38
2023/01/21 12:38:37;;;;;;;23.77;13.17;;;-1.10;99.90;;;;;;4974482;28;20195;-37
2023/01/21 12:41:25;;;;;;;27.83;16.57;;;-1.00;99.90;;;;;;4972640;28;20209;-37
2023/01/21 12:44:00;;;;;;;29.53;17.50;;;-1.00;99.90;;;;;;4977252;28;20189;-38
2023/01/21 12:46:40;;;;;;;27.67;14.77;;;-1.00;99.90;;;;;;4956162;28;20283;-38
2023/01/21 12:49:25;;;;;;;27.50;14.40;;;-1.00;99.90;;;;;;4973588;28;20189;-39
2023/01/21 12:52:12;;;;;;;26.53;14.83;;;-0.90;99.90;;;;;;4965546;28;20208;-38
2023/01/21 12:55:06;;;;;;;31.67;19.53;;;-0.80;99.90;;;;;;4961961;28;20191;-38
2023/01/21 12:57:42;;;;;;;27.87;16.53;;;-0.80;99.90;;;;;;4967207;28;20181;-40